Latest Coastal Weather Observations for Frederick Reef

IDQ60701

Issued at 2:02 am EST Saturday 30 April 2016 (issued every 10 minutes, with the page automatically refreshed every 10 minutes)

About coastal observations | Map of coastal stations | Coastal observations for QLD | Marine services | Other Formats
Station Details ID: 200701 Name: FREDERICK REEF Lat: -20.94 Lon: 154.40 Height: 4.9 m
Data from the previous 72 hours. | See also: Recent months for locations in Queensland
Date/Time
EST
Temp

°C
Wind Pressure Rain
since 9am
mm
Weather Cloud Vis
km
Sea
Height
m
Swell
Dir
 
Speed
knots
Gust
knots
hPa Trend Height
m
Period
s
Dir
30/02:00am 26.1 E 14 15 1015.8 - - - - - - - - -
30/01:30am 26.2 E 13 14 1016.2 - - - - - - - - -
30/01:00am 26.1 E 14 17 1016.2 - - - - - - - - -
30/12:30am 26.3 ESE 13 15 1016.7 - - - - - - - - -
30/12:00am 26.1 ESE 13 14 1016.8 - - - - - - - - -
 
Date/Time
EST
Temp

°C
Wind Pressure Rain
since 9am
mm
Weather Cloud Vis
km
Sea
Height
m
Swell
Dir
 
Speed
knots
Gust
knots
hPa Trend Height
m
Period
s
Dir
29/11:30pm 26.0 ESE 14 15 1017.1 - - - - - - - - -
29/11:00pm 26.2 ESE 14 - 1017.1 - - - - - - - - -
29/10:30pm 26.1 ESE 15 17 1017.4 - - - - - - - - -
29/10:00pm 26.2 ESE 15 16 1017.3 - - - - - - - - -
29/09:30pm 26.2 ESE 14 16 1017.4 - - - - - - - - -
29/09:00pm 26.2 ESE 16 16 1017.4 - - - - - - - - -
29/08:30pm 26.3 ESE 16 17 1017.3 - - - - - - - - -
29/08:00pm 26.2 ESE 14 16 1017.2 - - - - - - - - -
29/07:30pm 26.2 ESE 14 16 1016.9 - - - - - - - - -
29/07:00pm 26.2 ESE 15 16 1016.4 - - - - - - - - -
29/06:30pm 26.0 ESE 15 17 1016.1 - - - - - - - - -
29/06:00pm 26.0 ESE 15 16 1015.7 - - - - - - - - -
29/05:30pm 26.1 ESE 16 18 1015.4 - - - - - - - - -
29/05:00pm 26.1 ESE 17 19 1015.0 - - - - - - - - -
29/04:30pm 26.2 ESE 16 18 1014.9 - - - - - - - - -
29/04:00pm 26.3 ESE 17 19 1014.6 - - - - - - - - -
29/03:30pm 26.0 ESE 18 19 1014.5 - - - - - - - - -
29/03:00pm 26.3 ESE 17 19 1014.3 - - - - - - - - -
29/02:30pm 26.3 SE 18 20 1014.6 - - - - - - - - -
29/02:00pm 26.3 SE 18 19 1014.5 - - - - - - - - -
29/01:30pm 26.2 SE 19 21 1014.7 - - - - - - - - -
29/01:00pm 26.4 SE 18 21 1014.6 - - - - - - - - -
29/12:30pm 26.2 SE 18 20 1015.1 - - - - - - - - -
29/12:00pm 26.2 SE 17 19 1015.5 - - - - - - - - -
29/11:30am 26.4 SE 18 19 1016.2 - - - - - - - - -
29/11:00am 26.2 SE 17 19 1016.5 - - - - - - - - -
29/10:30am 26.3 SE 17 19 1017.4 - - - - - - - - -
29/10:00am 26.2 SE 17 18 1017.6 - - - - - - - - -
29/09:30am 26.3 SE 16 18 1018.1 - - - - - - - - -
29/09:00am 26.3 SE 16 17 1017.9 - - - - - - - - -
29/08:30am 26.1 SE 16 18 1018.0 - - - - - - - - -
29/08:00am 26.2 SE 15 17 1017.7 - - - - - - - - -
29/07:30am 26.1 SE 15 16 1017.5 - - - - - - - - -
29/07:00am 26.1 SE 15 17 1017.1 - - - - - - - - -
29/06:30am 26.0 ESE 15 16 1016.9 - - - - - - - - -
29/06:00am 25.9 ESE 15 17 1016.6 - - - - - - - - -
29/05:30am 25.9 ESE 15 18 1016.4 - - - - - - - - -
29/05:00am 26.0 ESE 16 18 1015.9 - - - - - - - - -
29/04:30am 25.9 ESE 17 19 1015.6 - - - - - - - - -
29/04:00am 25.9 ESE 18 20 1015.4 - - - - - - - - -
29/03:30am 26.0 ESE 18 21 1015.5 - - - - - - - - -
29/03:00am 26.0 ESE 18 21 1015.5 - - - - - - - - -
29/02:30am 25.9 SE 19 21 1015.6 - - - - - - - - -
29/02:00am 26.1 ESE 19 21 1015.9 - - - - - - - - -
29/01:30am 26.0 ESE 19 20 1016.2 - - - - - - - - -
29/01:00am 26.2 ESE 19 22 1016.3 - - - - - - - - -
29/12:30am 26.0 ESE 20 22 1016.6 - - - - - - - - -
29/12:00am 26.1 ESE 21 23 1016.6 - - - - - - - - -
 
Date/Time
EST
Temp

°C
Wind Pressure Rain
since 9am
mm
Weather Cloud Vis
km
Sea
Height
m
Swell
Dir
 
Speed
knots
Gust
knots
hPa Trend Height
m
Period
s
Dir
28/11:30pm 26.0 ESE 20 22 1016.9 - - - - - - - - -
28/11:00pm 26.4 ESE 19 22 1017.0 - - - - - - - - -
28/10:30pm 26.1 ESE 19 21 1017.4 - - - - - - - - -
28/10:00pm 26.3 ESE 20 23 1017.4 - - - - - - - - -
28/09:30pm 26.1 ESE 21 22 1017.5 - - - - - - - - -
28/09:00pm 26.0 ESE 19 22 1017.4 - - - - - - - - -
28/08:30pm 26.1 SE 21 23 1017.4 - - - - - - - - -
28/08:00pm 26.0 SE 18 22 1017.5 - - - - - - - - -
28/07:30pm 26.2 SE 20 22 1017.1 - - - - - - - - -
28/07:00pm 26.2 ESE 21 23 1016.6 - - - - - - - - -
28/06:30pm 26.1 ESE 21 23 1016.3 - - - - - - - - -
28/06:00pm 26.1 SE 21 24 1015.8 - - - - - - - - -
28/05:30pm 26.0 SE 20 23 1015.9 - - - - - - - - -
28/05:00pm 26.3 ESE 21 25 1015.6 - - - - - - - - -
28/04:30pm 26.3 SE 22 25 1015.4 - - - - - - - - -
28/04:00pm 26.3 ESE 22 25 1015.0 - - - - - - - - -
28/03:30pm 26.2 SE 23 25 1014.8 - - - - - - - - -
28/03:00pm 26.2 ESE 22 24 1014.6 - - - - - - - - -
28/02:30pm 26.1 SE 21 24 1014.7 - - - - - - - - -
28/02:00pm 26.3 SE 21 24 1014.6 - - - - - - - - -
28/01:30pm 26.1 ESE 21 25 1014.6 - - - - - - - - -
28/01:00pm 26.2 SE 20 22 1014.7 - - - - - - - - -
28/12:30pm 26.2 ESE 22 24 1015.1 - - - - - - - - -
28/12:00pm 26.1 ESE 21 24 1015.2 - - - - - - - - -
28/11:30am 26.2 ESE 22 24 1015.7 - - - - - - - - -
28/11:00am 26.0 ESE 21 24 1015.8 - - - - - - - - -
28/10:30am 26.1 ESE 22 25 1016.1 - - - - - - - - -
28/10:00am 26.2 ESE 21 25 1016.2 - - - - - - - - -
28/09:30am 26.0 ESE 20 23 1016.7 - - - - - - - - -
28/09:00am 26.1 ESE 22 24 1016.6 - - - - - - - - -
28/08:30am 25.7 ESE 21 24 1016.5 - - - - - - - - -
28/08:00am 26.1 ESE 21 24 1016.4 - - - - - - - - -
28/07:30am 25.9 ESE 20 23 1016.2 - - - - - - - - -
28/07:00am 26.0 ESE 22 24 1015.9 - - - - - - - - -
28/06:30am 25.9 ESE 21 23 1015.7 - - - - - - - - -
28/06:00am 26.2 ESE 21 24 1015.5 - - - - - - - - -
28/05:30am 25.6 ESE 24 27 1014.9 - - - - - - - - -
28/05:00am 25.7 ESE 23 25 1014.8 - - - - - - - - -
28/04:30am 25.8 ESE 21 25 1014.9 - - - - - - - - -
28/04:00am 26.0 ESE 20 24 1014.9 - - - - - - - - -
28/03:30am 25.7 SE 21 24 1015.0 - - - - - - - - -
28/03:00am 25.9 ESE 21 23 1015.0 - - - - - - - - -
28/02:30am 26.0 SE 21 24 1014.9 - - - - - - - - -
28/02:00am 25.8 ESE 22 25 1014.9 - - - - - - - - -
28/01:30am 26.0 ESE 23 25 1015.3 - - - - - - - - -
28/01:00am 25.8 ESE 21 25 1015.3 - - - - - - - - -
28/12:30am 26.2 ESE 23 25 1015.5 - - - - - - - - -
28/12:00am 26.0 ESE 23 25 1015.4 - - - - - - - - -
 
Date/Time
EST
Temp

°C
Wind Pressure Rain
since 9am
mm
Weather Cloud Vis
km
Sea
Height
m
Swell
Dir
 
Speed
knots
Gust
knots
hPa Trend Height
m
Period
s
Dir
27/11:30pm 25.9 ESE 23 25 1015.7 - - - - - - - - -
27/11:00pm 26.0 ESE 24 27 1015.7 - - - - - - - - -
27/10:30pm 26.0 ESE 25 27 1016.0 - - - - - - - - -
27/10:00pm 26.1 ESE 23 25 1016.0 - - - - - - - - -
27/09:30pm 26.2 ESE 24 27 1016.0 - - - - - - - - -
27/09:00pm 26.4 ESE 22 25 1015.9 - - - - - - - - -
27/08:30pm 26.2 ESE 22 24 1016.0 - - - - - - - - -
27/08:00pm 26.1 ESE 21 23 1015.8 - - - - - - - - -
27/07:30pm 25.7 SE 21 24 1015.6 - - - - - - - - -
27/07:00pm 25.6 SE 20 24 1015.5 - - - - - - - - -
27/06:30pm 25.4 ESE 23 25 1014.9 - - - - - - - - -
27/06:00pm 25.4 SE 24 25 1014.6 - - - - - - - - -
27/05:30pm 25.7 ESE 24 28 1014.3 - - - - - - - - -
27/05:00pm 25.9 SE 24 27 1014.1 - - - - - - - - -
27/04:30pm 26.0 ESE 21 23 1014.1 - - - - - - - - -
27/04:00pm 26.0 SE 20 22 1013.8 - - - - - - - - -
27/03:30pm 25.8 ESE 19 23 1013.4 - - - - - - - - -
27/03:00pm 26.0 SE 22 23 1013.1 - - - - - - - - -
27/02:30pm 26.2 ESE 19 23 1013.1 - - - - - - - - -
27/02:00pm 26.1 ESE 17 19 1013.4 - - - - - - - - -
27/01:30pm 25.9 SE 17 19 1014.0 - - - - - - - - -
27/01:00pm 26.1 ESE 17 19 1014.1 - - - - - - - - -
27/12:30pm 25.9 ESE 19 21 1014.3 - - - - - - - - -
27/12:00pm 25.9 ESE 17 22 1014.6 - - - - - - - - -
27/11:30am 25.9 ESE 18 20 1014.8 - - - - - - - - -
27/11:00am 25.8 ESE 19 22 1015.1 - - - - - - - - -
27/10:30am 26.1 ESE 19 21 1015.4 - - - - - - - - -
27/10:00am 25.9 ESE 19 20 1015.5 - - - - - - - - -
27/09:30am 25.9 ESE 20 22 1015.9 - - - - - - - - -
27/09:00am 26.1 ESE 20 22 1015.7 - - - - - - - - -
27/08:30am 25.7 ESE 21 23 1015.5 - - - - - - - - -
27/08:00am 25.8 ESE 21 23 1014.9 - - - - - - - - -
27/07:30am 25.7 ESE 21 24 1014.6 - - - - - - - - -
27/07:00am 25.7 ESE 20 23 1014.6 - - - - - - - - -
27/06:30am 25.5 ESE 18 21 1014.5 - - - - - - - - -
27/06:00am 25.6 ESE 19 22 1014.3 - - - - - - - - -
27/05:30am 25.8 ESE 21 23 1014.3 - - - - - - - - -
27/05:00am 25.7 ESE 20 23 1014.3 - - - - - - - - -
27/04:30am 25.7 ESE 20 22 1014.3 - - - - - - - - -
27/04:00am 25.5 ESE 18 20 1014.3 - - - - - - - - -
27/03:30am 25.6 ESE 19 23 1014.2 - - - - - - - - -
27/03:00am 25.6 ESE 19 22 1014.2 - - - - - - - - -
27/02:30am 25.3 ESE 20 22 1014.4 - - - - - - - - -

Other Formats:

Comma delimited format used in spreadsheet applications
http://www.bom.gov.au/fwo/IDQ60701/IDQ60701.94393.axf

JavaScript Object Notation format (JSON) in row-major order
http://www.bom.gov.au/fwo/IDQ60701/IDQ60701.94393.json